createdAt,value
2023-04-06T00:02:04.888Z,9.55
2023-04-06T00:04:33.016Z,9.15
2023-04-06T00:07:00.717Z,10.05
2023-04-06T00:09:29.829Z,8.45
2023-04-06T00:11:57.521Z,8.57
2023-04-06T00:14:25.369Z,8.60
2023-04-06T00:16:53.111Z,9.15
2023-04-06T00:19:20.851Z,9.82
2023-04-06T00:21:48.656Z,9.48
2023-04-06T00:24:16.407Z,9.18
2023-04-06T00:26:45.506Z,9.18
2023-04-06T00:29:13.175Z,8.93
2023-04-06T00:31:41.317Z,9.23
2023-04-06T00:34:09.150Z,8.77
2023-04-06T00:36:36.803Z,8.80
2023-04-06T00:39:04.622Z,8.00
2023-04-06T00:41:32.476Z,9.40
2023-04-06T00:44:01.581Z,9.85
2023-04-06T00:46:30.567Z,9.80
2023-04-06T00:48:58.999Z,9.20
2023-04-06T00:51:26.695Z,9.70
2023-04-06T00:53:56.123Z,9.73
2023-04-06T00:56:24.566Z,10.00
2023-04-06T00:58:52.362Z,9.73
2023-04-06T01:01:21.787Z,9.15
2023-04-06T01:03:51.257Z,9.10
2023-04-06T01:06:19.052Z,11.25
2023-04-06T01:08:46.690Z,8.65
2023-04-06T01:11:14.337Z,10.13
2023-04-06T01:13:42.019Z,10.20
2023-04-06T01:16:10.884Z,9.20
2023-04-06T01:18:43.285Z,9.93
2023-04-06T01:21:16.252Z,9.18
2023-04-06T01:23:46.525Z,9.55
2023-04-06T01:26:14.260Z,8.55
2023-04-06T01:28:41.984Z,9.55
2023-04-06T01:31:10.154Z,8.77
2023-04-06T01:33:38.018Z,9.05
2023-04-06T01:36:06.286Z,9.55
2023-04-06T01:38:34.039Z,9.70
2023-04-06T01:41:03.058Z,10.07
2023-04-06T01:43:30.876Z,9.98
2023-04-06T01:45:58.539Z,10.55
2023-04-06T01:48:26.215Z,8.75
2023-04-06T01:50:53.869Z,9.57
2023-04-06T01:53:21.590Z,9.85
2023-04-06T01:55:49.517Z,11.15
2023-04-06T01:58:18.559Z,10.00
2023-04-06T02:00:46.412Z,10.55
2023-04-06T02:03:15.671Z,9.50
2023-04-06T02:05:43.398Z,10.52
2023-04-06T02:08:11.095Z,10.52
2023-04-06T02:10:38.750Z,11.32
2023-04-06T02:13:06.445Z,10.95
2023-04-06T02:15:35.523Z,10.50
2023-04-06T02:18:03.265Z,10.73
2023-04-06T02:20:30.937Z,10.32
2023-04-06T02:22:58.800Z,10.43
2023-04-06T02:25:26.456Z,11.02
2023-04-06T02:27:54.116Z,10.00
2023-04-06T02:30:21.815Z,10.40
2023-04-06T02:32:51.038Z,11.10
2023-04-06T02:35:19.757Z,9.70
2023-04-06T02:37:47.426Z,11.10
2023-04-06T02:40:16.112Z,9.68
2023-04-06T02:42:43.893Z,9.55
2023-04-06T02:45:11.912Z,10.25
2023-04-06T02:47:39.589Z,9.10
2023-04-06T02:50:08.969Z,10.65
2023-04-06T02:52:36.852Z,11.80
2023-04-06T02:55:04.718Z,10.52
2023-04-06T02:57:32.360Z,11.27
2023-04-06T03:00:00.612Z,10.73
2023-04-06T03:02:28.293Z,9.80
2023-04-06T03:04:56.440Z,10.88
2023-04-06T03:07:25.557Z,10.23
2023-04-06T03:09:53.236Z,11.15
2023-04-06T03:12:20.962Z,9.38
2023-04-06T03:14:48.799Z,10.90
2023-04-06T03:17:16.846Z,11.07
2023-04-06T03:19:44.544Z,12.07
2023-04-06T03:22:12.234Z,10.70
2023-04-06T03:24:41.228Z,10.70
2023-04-06T03:27:08.925Z,9.60
2023-04-06T03:29:36.696Z,10.57
2023-04-06T03:32:04.651Z,11.40
2023-04-06T03:34:32.327Z,10.63
2023-04-06T03:37:09.206Z,10.27
2023-04-06T03:39:37.817Z,10.77
2023-04-06T03:42:06.993Z,10.20
2023-04-06T03:44:34.701Z,11.93
2023-04-06T03:47:03.305Z,10.77
2023-04-06T03:49:31.037Z,10.05
2023-04-06T03:51:59.127Z,10.52
2023-04-06T03:54:27.013Z,9.20
2023-04-06T03:56:54.695Z,10.27
2023-04-06T03:59:23.859Z,10.75
2023-04-06T04:01:53.452Z,9.90
2023-04-06T04:04:21.364Z,11.18
2023-04-06T04:06:49.047Z,11.43
2023-04-06T04:09:16.859Z,10.27
2023-04-06T04:11:44.627Z,11.55
2023-04-06T04:14:12.325Z,10.48
2023-04-06T04:16:42.947Z,10.68
2023-04-06T04:19:11.158Z,10.48
2023-04-06T04:21:44.527Z,9.43
2023-04-06T04:24:13.824Z,9.80
2023-04-06T04:26:42.081Z,10.18
2023-04-06T04:29:09.900Z,8.95
2023-04-06T04:31:37.831Z,9.77
2023-04-06T04:34:10.552Z,10.30
2023-04-06T04:36:38.246Z,9.50
2023-04-06T04:39:07.370Z,10.93
2023-04-06T04:41:35.305Z,10.00
2023-04-06T04:44:03.010Z,10.35
2023-04-06T04:46:30.931Z,10.73
2023-04-06T04:48:58.605Z,10.82
2023-04-06T04:51:27.742Z,9.40
2023-04-06T04:53:56.533Z,9.63
2023-04-06T04:56:24.192Z,8.25
2023-04-06T04:58:51.947Z,9.07
2023-04-06T05:01:19.711Z,9.18
2023-04-06T05:03:47.579Z,8.63
2023-04-06T05:06:15.593Z,10.35
2023-04-06T05:08:44.769Z,8.73
2023-04-06T05:11:12.480Z,7.93
2023-04-06T05:13:40.671Z,8.13
2023-04-06T05:16:08.908Z,8.30
2023-04-06T05:18:36.688Z,8.35
2023-04-06T05:21:04.514Z,9.10
2023-04-06T05:23:32.337Z,7.55
2023-04-06T05:26:01.391Z,7.07
2023-04-06T05:28:29.100Z,8.60
2023-04-06T05:30:57.926Z,7.10
2023-04-06T05:33:26.117Z,7.47
2023-04-06T05:35:53.794Z,6.40
2023-04-06T05:38:21.494Z,7.07
2023-04-06T05:40:49.234Z,5.30
2023-04-06T05:43:18.243Z,6.25
2023-04-06T05:45:46.458Z,5.95
2023-04-06T05:48:14.192Z,6.43
2023-04-06T05:50:42.883Z,5.03
2023-04-06T05:53:10.638Z,5.28
2023-04-06T05:55:38.629Z,4.80
2023-04-06T05:58:07.870Z,5.20
2023-04-06T06:00:36.931Z,6.30
2023-04-06T06:03:07.061Z,6.32
2023-04-06T06:05:34.914Z,6.95
2023-04-06T06:08:03.187Z,5.32
2023-04-06T06:10:31.310Z,7.60
2023-04-06T06:12:59.015Z,8.20
2023-04-06T06:15:27.166Z,7.43
2023-04-06T06:17:56.229Z,8.20
2023-04-06T06:20:23.979Z,8.38
2023-04-06T06:22:52.782Z,9.02
2023-04-06T06:25:20.445Z,11.40
2023-04-06T06:27:48.148Z,10.18
2023-04-06T06:30:18.925Z,11.90
2023-04-06T06:32:47.622Z,10.68
2023-04-06T06:35:17.323Z,11.27
2023-04-06T06:37:45.252Z,11.50
2023-04-06T06:40:14.260Z,11.85
2023-04-06T06:42:42.736Z,11.35
2023-04-06T06:45:11.337Z,10.98
2023-04-06T06:47:39.012Z,12.52
2023-04-06T06:50:07.375Z,11.00
2023-04-06T06:52:36.734Z,12.60
2023-04-06T06:55:04.766Z,13.88
2023-04-06T06:57:32.624Z,11.10
2023-04-06T07:00:00.981Z,10.80
2023-04-06T07:02:28.738Z,12.20
2023-04-06T07:04:56.506Z,9.80
2023-04-06T07:07:24.258Z,12.07
2023-04-06T07:09:53.404Z,11.73
2023-04-06T07:12:21.203Z,9.27
2023-04-06T07:14:49.106Z,10.25
2023-04-06T07:17:17.145Z,10.30
2023-04-06T07:19:44.883Z,9.73
2023-04-06T07:22:12.589Z,9.63
2023-04-06T07:24:41.519Z,9.05
2023-04-06T07:27:10.595Z,8.40
2023-04-06T07:29:38.328Z,9.48
2023-04-06T07:32:06.205Z,8.18
2023-04-06T07:34:34.458Z,9.93
2023-04-06T07:37:04.311Z,9.18
2023-04-06T07:39:32.014Z,8.57
2023-04-06T07:41:59.705Z,8.82
2023-04-06T07:44:28.759Z,8.23
2023-04-06T07:46:56.429Z,8.13
2023-04-06T07:49:24.091Z,8.00
2023-04-06T07:51:51.853Z,9.27
2023-04-06T07:54:19.575Z,9.20
2023-04-06T07:56:48.103Z,8.90
2023-04-06T07:59:15.849Z,9.52
2023-04-06T08:01:45.016Z,8.55
2023-04-06T08:04:12.826Z,9.32
2023-04-06T08:06:42.217Z,8.85
2023-04-06T08:09:09.895Z,8.63
2023-04-06T08:11:37.673Z,10.05
2023-04-06T08:14:05.310Z,8.02
2023-04-06T08:16:32.989Z,8.57
2023-04-06T08:19:02.002Z,8.40
2023-04-06T08:21:29.703Z,7.28
2023-04-06T08:23:57.367Z,6.90
2023-04-06T08:26:25.095Z,8.55
2023-04-06T08:28:52.771Z,9.25
2023-04-06T08:31:20.434Z,8.55
2023-04-06T08:33:48.152Z,7.03
2023-04-06T08:36:19.331Z,7.10
2023-04-06T08:38:47.044Z,8.07
2023-04-06T08:41:15.959Z,8.38
2023-04-06T08:43:44.978Z,7.50
2023-04-06T08:46:13.579Z,6.47
2023-04-06T08:48:42.034Z,7.50
2023-04-06T08:51:12.036Z,7.20
2023-04-06T08:53:41.196Z,7.57
2023-04-06T08:56:09.287Z,7.47
2023-04-06T08:58:38.770Z,6.68
2023-04-06T09:01:09.223Z,6.68
2023-04-06T09:03:38.978Z,6.50
2023-04-06T09:06:07.751Z,6.20
2023-04-06T09:08:36.040Z,5.75
2023-04-06T09:11:05.350Z,5.75
2023-04-06T09:13:33.228Z,6.18
2023-04-06T09:16:01.633Z,5.43
2023-04-06T09:18:32.791Z,6.22
2023-04-06T09:21:01.477Z,6.00
2023-04-06T09:23:30.742Z,7.28
2023-04-06T09:26:09.846Z,5.95
2023-04-06T09:28:44.141Z,6.85
2023-04-06T09:31:12.011Z,7.53
2023-04-06T09:33:40.755Z,6.20
2023-04-06T09:36:08.906Z,6.53
2023-04-06T09:38:36.954Z,6.68
2023-04-06T09:41:04.738Z,7.97
2023-04-06T09:43:33.895Z,7.75
2023-04-06T09:46:03.970Z,6.45
2023-04-06T09:48:33.243Z,8.88
2023-04-06T09:51:01.928Z,6.78
2023-04-06T09:53:30.951Z,7.43
2023-04-06T09:56:02.076Z,6.50
2023-04-06T09:58:33.163Z,7.30
2023-04-06T10:01:05.062Z,8.57
2023-04-06T10:03:38.660Z,7.00
2023-04-06T10:06:08.321Z,7.40
2023-04-06T10:08:37.313Z,7.10
2023-04-06T10:11:06.742Z,8.15
2023-04-06T10:13:34.882Z,7.95
2023-04-06T10:16:03.981Z,7.75
2023-04-06T10:18:31.866Z,8.68
2023-04-06T10:21:02.459Z,8.38
2023-04-06T10:23:33.161Z,8.38
2023-04-06T10:26:01.954Z,8.82
2023-04-06T10:28:32.976Z,7.57
2023-04-06T10:31:01.349Z,7.55
2023-04-06T10:33:30.647Z,8.77
2023-04-06T10:35:58.609Z,8.52
2023-04-06T10:38:37.048Z,8.93
2023-04-06T10:41:07.382Z,8.70
2023-04-06T10:43:36.100Z,7.95
2023-04-06T10:46:04.213Z,9.98
2023-04-06T10:48:40.359Z,9.70
2023-04-06T10:51:12.218Z,8.70
2023-04-06T10:53:40.160Z,8.82
2023-04-06T10:56:12.421Z,9.48
2023-04-06T10:58:40.499Z,8.68
2023-04-06T11:01:08.389Z,9.23
2023-04-06T11:03:46.229Z,9.90
2023-04-06T11:06:20.047Z,7.97
2023-04-06T11:08:47.785Z,7.80
2023-04-06T11:11:17.046Z,7.38
2023-04-06T11:13:45.994Z,8.43
2023-04-06T11:16:18.163Z,9.60
2023-04-06T11:18:53.198Z,6.72
2023-04-06T11:21:21.297Z,7.13
2023-04-06T11:23:48.966Z,7.70
2023-04-06T11:26:16.817Z,6.40
2023-04-06T11:28:44.754Z,6.28
2023-04-06T11:31:13.295Z,6.20
2023-04-06T11:33:41.132Z,6.93
2023-04-06T11:36:10.568Z,6.60
2023-04-06T11:38:40.866Z,8.00
2023-04-06T11:41:08.549Z,6.40
2023-04-06T11:43:36.245Z,8.45
2023-04-06T11:46:04.721Z,6.93
2023-04-06T11:48:33.366Z,7.80
2023-04-06T11:51:02.282Z,7.13
2023-04-06T11:53:31.580Z,8.77
2023-04-06T11:56:00.701Z,7.32
2023-04-06T11:58:28.505Z,6.57
2023-04-06T12:00:56.215Z,7.30
2023-04-06T12:03:24.034Z,8.82
2023-04-06T12:05:52.141Z,8.48
2023-04-06T12:08:19.881Z,8.30
2023-04-06T12:10:48.943Z,8.00
2023-04-06T12:13:16.679Z,9.20
2023-04-06T12:15:44.346Z,8.65
2023-04-06T12:18:12.090Z,9.32
2023-04-06T12:20:39.846Z,7.78
2023-04-06T12:23:07.947Z,8.23
2023-04-06T12:25:35.664Z,8.23
2023-04-06T12:28:04.700Z,10.15
2023-04-06T12:30:33.159Z,8.02
2023-04-06T12:33:03.754Z,7.72
2023-04-06T12:35:35.983Z,10.32
2023-04-06T12:38:03.692Z,8.82
2023-04-06T12:40:31.376Z,9.88
2023-04-06T12:42:59.065Z,7.82
2023-04-06T12:45:28.359Z,9.38
2023-04-06T12:47:56.147Z,9.25
2023-04-06T12:50:23.918Z,9.23
2023-04-06T12:52:51.620Z,9.20
2023-04-06T12:55:19.465Z,7.53
2023-04-06T12:57:47.523Z,9.57
2023-04-06T13:00:16.154Z,8.30
2023-04-06T13:02:48.337Z,8.82
2023-04-06T13:05:19.607Z,8.40
2023-04-06T13:07:48.450Z,8.25
2023-04-06T13:10:16.152Z,8.27
2023-04-06T13:12:43.829Z,9.02
2023-04-06T13:15:12.160Z,7.80
2023-04-06T13:17:39.871Z,8.88
2023-04-06T13:20:10.917Z,8.07
2023-04-06T13:22:38.560Z,8.20
2023-04-06T13:25:07.618Z,8.88
2023-04-06T13:27:36.728Z,7.78
2023-04-06T13:30:04.810Z,9.55
2023-04-06T13:32:32.524Z,9.52
2023-04-06T13:35:01.777Z,9.20
2023-04-06T13:37:31.108Z,9.55
2023-04-06T13:39:58.764Z,9.88
2023-04-06T13:42:26.410Z,8.52
2023-04-06T13:44:54.665Z,10.10
2023-04-06T13:47:22.945Z,9.68
2023-04-06T13:49:51.909Z,10.52
2023-04-06T13:52:19.581Z,9.18
2023-04-06T13:54:48.626Z,9.27
2023-04-06T13:57:16.845Z,9.75
2023-04-06T14:02:17.454Z,9.13
2023-04-06T14:04:45.863Z,9.70
2023-04-06T14:07:13.483Z,9.93
2023-04-06T14:09:41.104Z,7.80
2023-04-06T14:12:10.077Z,9.70
2023-04-06T14:14:37.886Z,8.93
2023-04-06T14:17:05.830Z,7.88
2023-04-06T14:19:34.098Z,8.48
2023-04-06T14:22:01.851Z,8.48
2023-04-06T14:24:29.437Z,7.95
2023-04-06T14:26:57.686Z,9.35
2023-04-06T14:29:26.698Z,7.57
2023-04-06T14:31:54.306Z,8.68
2023-04-06T14:34:22.231Z,8.60
2023-04-06T14:36:50.605Z,8.27
2023-04-06T14:39:18.246Z,7.50
2023-04-06T14:41:46.109Z,7.72
2023-04-06T14:44:14.241Z,6.38
2023-04-06T14:46:43.482Z,7.30
2023-04-06T14:49:11.588Z,5.63
2023-04-06T14:51:40.113Z,6.20
2023-04-06T14:54:07.724Z,6.53
2023-04-06T14:56:35.527Z,5.93
2023-04-06T14:59:04.033Z,5.85
2023-04-06T15:01:32.123Z,6.00
2023-04-06T15:04:01.846Z,6.47
2023-04-06T15:06:29.631Z,5.35
2023-04-06T15:08:57.280Z,6.32
2023-04-06T15:11:24.947Z,5.10
2023-04-06T15:13:53.154Z,5.68
2023-04-06T15:16:21.033Z,5.38
2023-04-06T15:18:48.693Z,5.32
2023-04-06T15:21:18.627Z,5.25
2023-04-06T15:23:46.590Z,4.78
2023-04-06T15:26:14.458Z,3.95
2023-04-06T15:28:42.147Z,4.22
2023-04-06T15:31:20.755Z,4.75
2023-04-06T15:33:52.030Z,3.80
2023-04-06T15:36:27.170Z,4.47
2023-04-06T15:38:54.871Z,3.90
2023-04-06T15:41:22.533Z,3.22
2023-04-06T15:43:50.440Z,3.08
2023-04-06T15:46:18.106Z,3.55
2023-04-06T15:48:45.947Z,2.95
2023-04-06T15:51:13.898Z,3.08
2023-04-06T15:53:44.489Z,3.40
2023-04-06T15:56:14.412Z,2.75
2023-04-06T15:58:42.597Z,4.18
2023-04-06T16:01:14.608Z,2.88
2023-04-06T16:03:45.623Z,2.70
2023-04-06T16:06:13.664Z,2.85
2023-04-06T16:08:41.582Z,3.38
2023-04-06T16:11:10.892Z,2.90
2023-04-06T16:13:38.618Z,3.67
2023-04-06T16:16:06.726Z,3.40
2023-04-06T16:18:36.453Z,2.85
2023-04-06T16:21:05.577Z,2.97
2023-04-06T16:23:33.258Z,2.80
2023-04-06T16:26:01.167Z,3.25
2023-04-06T16:28:31.498Z,3.35
2023-04-06T16:30:59.621Z,3.45
2023-04-06T16:33:27.355Z,3.55
2023-04-06T16:35:58.268Z,2.88
2023-04-06T16:38:30.082Z,3.13
2023-04-06T16:41:00.856Z,3.20
2023-04-06T16:43:28.664Z,2.92
2023-04-06T16:45:57.664Z,3.75
2023-04-06T16:48:25.449Z,3.63
2023-04-06T16:50:53.126Z,4.07
2023-04-06T16:53:20.850Z,3.53
2023-04-06T16:55:48.520Z,4.75
2023-04-06T16:58:16.441Z,4.93
2023-04-06T17:00:45.302Z,4.00
2023-04-06T17:03:15.007Z,3.85
2023-04-06T17:05:43.272Z,4.50
2023-04-06T17:08:11.416Z,5.13
2023-04-06T17:10:59.088Z,3.75
2023-04-06T17:13:30.542Z,3.95
2023-04-06T17:16:00.646Z,4.30
2023-04-06T17:18:30.816Z,4.00
2023-04-06T17:20:58.642Z,3.75
2023-04-06T17:23:26.599Z,4.25
2023-04-06T17:25:57.396Z,4.43
2023-04-06T17:28:26.005Z,4.78
2023-04-06T17:30:53.671Z,5.15
2023-04-06T17:33:23.768Z,4.28
2023-04-06T17:35:52.884Z,3.45
2023-04-06T17:38:21.290Z,6.50
2023-04-06T17:40:50.701Z,3.35
2023-04-06T17:43:18.386Z,3.00
2023-04-06T17:45:46.129Z,10.23
2023-04-06T17:48:13.770Z,3.92
2023-04-06T17:50:41.412Z,2.40
2023-04-06T17:53:10.998Z,3.53
2023-04-06T17:55:39.240Z,2.22
2023-04-06T17:58:07.325Z,3.08
2023-04-06T18:00:38.454Z,2.95
2023-04-06T18:03:06.375Z,3.40
2023-04-06T18:05:39.704Z,2.38
2023-04-06T18:08:07.353Z,2.10
2023-04-06T18:10:40.046Z,1.73
2023-04-06T18:13:08.201Z,1.95
2023-04-06T18:15:36.550Z,1.95
2023-04-06T18:18:08.310Z,2.75
2023-04-06T18:20:40.530Z,2.08
2023-04-06T18:23:08.279Z,2.17
2023-04-06T18:25:51.109Z,2.58
2023-04-06T18:28:20.315Z,2.72
2023-04-06T18:30:47.999Z,2.63
2023-04-06T18:33:15.753Z,2.40
2023-04-06T18:35:43.329Z,3.10
2023-04-06T18:38:11.312Z,3.20
2023-04-06T18:40:39.647Z,3.40
2023-04-06T18:43:08.298Z,4.32
2023-04-06T18:45:38.952Z,2.78
2023-04-06T18:48:08.244Z,2.75
2023-04-06T18:50:36.132Z,3.63
2023-04-06T18:53:03.997Z,4.22
2023-04-06T18:55:33.185Z,4.05
2023-04-06T18:58:01.430Z,3.05
2023-04-06T19:00:29.126Z,3.67
2023-04-06T19:05:58.959Z,4.30
2023-04-06T19:08:26.614Z,4.03
2023-04-06T19:10:54.219Z,5.07
2023-04-06T19:13:21.854Z,3.22
2023-04-06T19:15:51.311Z,4.95
2023-04-06T19:18:21.699Z,4.00
2023-04-06T19:20:49.433Z,3.05
2023-04-06T19:23:17.404Z,4.50
2023-04-06T19:25:45.208Z,4.43
2023-04-06T19:28:14.747Z,3.65
2023-04-06T19:30:42.418Z,3.83
2023-04-06T19:33:10.190Z,3.13
2023-04-06T19:35:39.474Z,3.08
2023-04-06T19:38:07.116Z,3.83
2023-04-06T19:40:34.810Z,2.97
2023-04-06T19:43:02.485Z,3.50
2023-04-06T19:45:30.429Z,3.95
2023-04-06T19:47:58.397Z,3.65
2023-04-06T19:50:26.447Z,3.38
2023-04-06T19:52:56.249Z,3.60
2023-04-06T19:55:23.864Z,2.88
2023-04-06T19:57:53.213Z,3.45
2023-04-06T20:00:21.232Z,3.92
2023-04-06T20:02:49.056Z,4.65
2023-04-06T20:05:22.326Z,4.85
2023-04-06T20:07:50.134Z,3.90
2023-04-06T20:10:19.121Z,3.45
2023-04-06T20:12:47.796Z,3.35
2023-04-06T20:15:15.735Z,3.40
2023-04-06T20:17:43.525Z,4.18
2023-04-06T20:20:12.467Z,3.60
2023-04-06T20:22:40.766Z,4.47
2023-04-06T20:25:12.034Z,4.63
2023-04-06T20:27:41.158Z,2.78
2023-04-06T20:30:12.176Z,4.47
2023-04-06T20:32:39.985Z,3.03
2023-04-06T20:35:07.877Z,2.75
2023-04-06T20:37:36.043Z,2.80
2023-04-06T20:40:04.168Z,3.20
2023-04-06T20:42:32.790Z,2.08
2023-04-06T20:45:03.166Z,3.08
2023-04-06T20:47:31.655Z,2.33
2023-04-06T20:49:59.637Z,3.33
2023-04-06T20:52:27.675Z,3.63
2023-04-06T20:54:56.405Z,3.20
2023-04-06T20:57:24.258Z,3.78
2023-04-06T20:59:51.859Z,3.72
2023-04-06T21:02:21.186Z,5.53
2023-04-06T21:04:48.951Z,3.70
2023-04-06T21:07:16.899Z,3.50
2023-04-06T21:09:44.468Z,4.55
2023-04-06T21:12:12.718Z,3.60
2023-04-06T21:14:41.310Z,2.88
2023-04-06T21:17:09.013Z,3.90
2023-04-06T21:19:38.945Z,3.13
2023-04-06T21:22:07.073Z,3.15
2023-04-06T21:24:34.740Z,3.30
2023-04-06T21:27:02.359Z,3.30
2023-04-06T21:29:30.119Z,2.80
2023-04-06T21:31:57.916Z,3.60
2023-04-06T21:34:25.607Z,3.25
2023-04-06T21:36:57.156Z,4.90
2023-04-06T21:39:25.407Z,2.97
2023-04-06T21:41:53.013Z,3.15
2023-04-06T21:44:20.954Z,3.58
2023-04-06T21:46:48.811Z,4.68
2023-04-06T21:49:16.442Z,4.18
2023-04-06T21:51:44.159Z,3.58
2023-04-06T21:54:13.429Z,4.25
2023-04-06T21:56:41.213Z,5.05
2023-04-06T21:59:08.995Z,3.28
2023-04-06T22:01:36.596Z,3.17
2023-04-06T22:04:04.394Z,3.85
2023-04-06T22:06:32.193Z,3.63
2023-04-06T22:09:00.508Z,3.30
2023-04-06T22:11:29.557Z,3.10
2023-04-06T22:13:57.266Z,4.13
2023-04-06T22:16:25.036Z,3.80
2023-04-06T22:18:52.749Z,4.15
2023-04-06T22:21:20.490Z,3.40
2023-04-06T22:23:48.207Z,3.55
2023-04-06T22:26:16.009Z,4.57
2023-04-06T22:28:45.009Z,3.50
2023-04-06T22:31:12.695Z,3.45
2023-04-06T22:33:40.387Z,3.15
2023-04-06T22:36:08.327Z,3.30
2023-04-06T22:38:37.133Z,2.50
2023-04-06T22:41:06.046Z,3.15
2023-04-06T22:43:36.637Z,3.58
2023-04-06T22:46:05.982Z,3.50
2023-04-06T22:48:33.627Z,2.45
2023-04-06T22:51:01.264Z,3.53
2023-04-06T22:53:28.922Z,3.25
2023-04-06T22:55:56.728Z,2.83
2023-04-06T22:58:24.380Z,3.90
2023-04-06T23:00:52.030Z,3.65
2023-04-06T23:03:21.446Z,3.53
2023-04-06T23:05:49.181Z,2.70
2023-04-06T23:08:17.022Z,3.83
2023-04-06T23:10:44.664Z,2.85
2023-04-06T23:13:12.399Z,4.35
2023-04-06T23:15:40.099Z,3.83
2023-04-06T23:18:10.226Z,5.22
2023-04-06T23:20:40.997Z,4.25
2023-04-06T23:23:08.637Z,5.18
2023-04-06T23:25:36.891Z,5.07
2023-04-06T23:28:04.545Z,5.07
2023-04-06T23:30:32.220Z,4.50
2023-04-06T23:32:59.870Z,5.10
2023-04-06T23:35:28.246Z,4.45
2023-04-06T23:37:57.490Z,4.93
2023-04-06T23:40:25.337Z,4.18
2023-04-06T23:42:52.928Z,5.18
2023-04-06T23:45:20.883Z,5.00
2023-04-06T23:47:48.524Z,4.07
2023-04-06T23:50:16.245Z,4.90
2023-04-06T23:52:43.898Z,5.35
2023-04-06T23:55:12.886Z,4.35
2023-04-06T23:57:40.530Z,3.97
